Colton, Washington
Current Conditions -  °F | °C
As of 5:53 AM on Monday 20 Oct 2014 (Local Time) from KPUW Reporting Station
Clear Clear  
Wind Chill: 11°   Ceiling: Unl
Heat Index: 11°   Visibility: 10mi
Dew Point:   Wind: 6mph
Humidity: 59%   Direction: 60°ENE
Pressure: 29.78"   Gusts: NA
Location:  46.57°N, 117.13°W
Report Text: KPUW 201253Z AUTO 06005KT 10SM CLR 11/03 A2978 RMK AO2 SLP076 T01110033
Loading
Personal Weather Stations






























Interactive Weather Map
Tropical Storm Tracking
New forecast layout! Learn more

10-Day Weather Forecast

Advertisements
Track Severe Weather on mobile